Sign-in with your pilot id or email, or register

ICAO: RCTP Name / Country: Chung-cheng Kuo-chi Chi-ch'ang / Taiwan
Latitude: 25.0777 Longitude: 121.233
Total Arrivals:
Strict Standards: Non-static method AirportData::getarrflights() should not be called statically, assuming $this from incompatible context in /var/www/customers/vh-7192/web/home/phpvms/core/templates/airport_info.tpl on line 18
1
Total Departures:
Strict Standards: Non-static method AirportData::getdeptflights() should not be called statically, assuming $this from incompatible context in /var/www/customers/vh-7192/web/home/phpvms/core/templates/airport_info.tpl on line 21
0
Latest Arrival: MTA5PM (RJAA-RCTP) Tibor Berces Latest Departure: (-)
Metar: RCTP 201630Z 06010KT 9999 FEW015 BKN050 27/24 Q1012 NOSIG RMK A2991
More info

Charts for RCTP


NOTAM


Warning: file_get_contents(http://api.vateud.net/notams/RCTP.json): failed to open stream: Redirection limit reached, aborting in /var/www/customers/vh-7192/web/home/phpvms/core/common/NOTAMSData.class.php on line 18

Warning: Invalid argument supplied for foreach() in /var/www/customers/vh-7192/web/home/phpvms/core/common/NOTAMSData.class.php on line 22

Chung-cheng Kuo-chi Chi-ch'ang